Time;durP1;ratioP1;P1;durP2;ratioP2;P2;SDS_P1;SDS_P2;PMS_P1;PMS_P2;Temp;Humidity;BMP_temperature;BMP_pressure;BME280_temperature;BME280_humidity;BME280_pressure;Samples;Min_cycle;Max_cycle;Signal;HPM_P1;HPM_P2
2023/08/19 00:02:59;;;;;;;0.90;0.63;;;;;;;14.64;79.19;102302.75;10442641;28;20064;-78
2023/08/19 00:08:03;;;;;;;2.00;0.80;;;;;;;14.60;79.08;102294.16;10445522;28;20052;-76
2023/08/19 00:13:05;;;;;;;1.55;0.60;;;;;;;14.60;79.61;102282.28;10443677;28;20045;-77
2023/08/19 00:18:07;;;;;;;0.77;0.60;;;;;;;14.95;78.33;102273.31;10446729;28;20049;-76
2023/08/19 00:23:09;;;;;;;0.85;0.50;;;;;;;14.68;77.93;102279.00;10446423;28;20049;-77
2023/08/19 00:28:12;;;;;;;0.70;0.60;;;;;;;14.49;79.15;102284.16;10446049;28;20045;-77
2023/08/19 00:33:14;;;;;;;0.60;0.60;;;;;;;14.63;79.03;102274.28;10419353;28;20053;-77
2023/08/19 00:38:16;;;;;;;0.55;0.50;;;;;;;14.45;79.40;102270.06;10410760;28;20053;-76
2023/08/19 00:43:18;;;;;;;0.60;0.60;;;;;;;14.35;80.29;102282.91;10444346;28;20038;-76
2023/08/19 00:48:22;;;;;;;0.90;0.70;;;;;;;14.32;80.13;102275.19;10444299;28;20526;-77
2023/08/19 00:53:25;;;;;;;1.48;0.85;;;;;;;14.34;80.01;102242.59;10443982;28;20042;-78
2023/08/19 00:58:27;;;;;;;0.50;0.50;;;;;;;14.42;79.41;102255.91;10442788;28;20060;-78
2023/08/19 01:03:29;;;;;;;0.40;0.40;;;;;;;14.21;79.98;102240.28;10426595;28;20050;-78
2023/08/19 01:08:47;;;;;;;1.88;0.55;;;;;;;14.10;79.93;102237.50;10444283;28;20049;-78
2023/08/19 01:14:01;;;;;;;0.55;0.50;;;;;;;13.94;80.84;102249.50;10444091;28;20500;-78
2023/08/19 01:19:05;;;;;;;0.38;0.20;;;;;;;14.12;80.08;102231.69;10441879;28;20048;-77
2023/08/19 01:24:09;;;;;;;0.40;0.40;;;;;;;14.10;79.78;102245.78;10441883;28;20518;-78
2023/08/19 01:29:11;;;;;;;1.40;0.47;;;;;;;14.05;80.45;102247.66;10443390;28;20041;-78
2023/08/19 01:34:13;;;;;;;0.43;0.40;;;;;;;14.15;79.83;102254.06;10443218;28;20047;-78
2023/08/19 01:39:18;;;;;;;0.43;0.43;;;;;;;14.23;79.94;102241.72;10426559;28;20041;-78
2023/08/19 01:44:21;;;;;;;0.73;0.20;;;;;;;14.23;79.70;102232.56;10427280;28;20049;-78
2023/08/19 01:49:24;;;;;;;1.02;0.60;;;;;;;14.29;79.13;102234.28;10442425;28;20038;-77
2023/08/19 01:54:27;;;;;;;1.35;0.47;;;;;;;14.30;79.15;102247.81;10440941;28;20428;-78
2023/08/19 01:59:29;;;;;;;0.45;0.45;;;;;;;14.16;79.99;102244.69;10442805;28;20053;-77
2023/08/19 02:04:32;;;;;;;1.05;0.77;;;;;;;14.15;79.99;102242.19;10431030;28;20041;-78
2023/08/19 02:09:34;;;;;;;2.72;0.63;;;;;;;14.04;81.03;102244.06;10442223;28;20049;-76
2023/08/19 02:14:37;;;;;;;1.05;0.77;;;;;;;14.10;80.73;102236.66;10443606;28;20397;-76
2023/08/19 02:19:39;;;;;;;3.38;0.65;;;;;;;14.26;80.65;102248.63;10419846;28;20037;-76
2023/08/19 02:24:41;;;;;;;0.80;0.65;;;;;;;14.38;80.17;102236.25;10441359;28;20499;-76
2023/08/19 02:29:46;;;;;;;1.23;0.90;;;;;;;14.42;79.54;102240.19;10441486;28;20045;-76
2023/08/19 02:34:48;;;;;;;0.50;0.50;;;;;;;14.17;80.81;102221.50;10450668;28;20049;-76
2023/08/19 02:39:50;;;;;;;0.63;0.57;;;;;;;14.11;81.14;102225.34;10449999;28;20037;-76
2023/08/19 02:44:52;;;;;;;1.52;0.60;;;;;;;14.42;80.23;102218.06;10450781;28;20034;-77
2023/08/19 02:49:54;;;;;;;1.88;0.73;;;;;;;14.46;80.38;102204.59;10448181;28;20045;-76
2023/08/19 02:54:56;;;;;;;2.70;0.80;;;;;;;14.36;80.45;102201.72;10448726;28;20049;-77
2023/08/19 02:59:59;;;;;;;0.90;0.82;;;;;;;14.39;80.37;102206.72;10414978;28;20076;-77
2023/08/19 03:05:01;;;;;;;1.65;0.70;;;;;;;14.36;80.57;102215.53;10449871;28;20420;-76
2023/08/19 03:10:05;;;;;;;2.20;0.70;;;;;;;14.37;80.27;102229.06;10434802;28;20057;-76
2023/08/19 03:15:07;;;;;;;2.17;0.73;;;;;;;14.46;80.67;102216.47;10430914;28;20045;-76
2023/08/19 03:20:10;;;;;;;0.75;0.57;;;;;;;14.43;80.65;102213.38;10447753;28;20037;-77
2023/08/19 03:25:12;;;;;;;1.35;0.77;;;;;;;14.34;81.46;102201.16;10446545;28;20648;-77
2023/08/19 03:30:14;;;;;;;0.50;0.50;;;;;;;14.47;81.40;102186.91;10413803;28;20052;-76
2023/08/19 03:35:17;;;;;;;0.70;0.70;;;;;;;14.51;81.05;102174.22;10446511;28;20044;-76
2023/08/19 03:40:19;;;;;;;0.55;0.55;;;;;;;14.64;81.06;102167.38;10447569;28;20045;-77
2023/08/19 03:45:21;;;;;;;1.80;1.00;;;;;;;14.54;80.97;102161.78;10444414;28;20033;-76
2023/08/19 03:50:24;;;;;;;1.80;0.70;;;;;;;14.57;81.38;102175.88;10461897;28;20045;-77
2023/08/19 03:55:26;;;;;;;0.60;0.52;;;;;;;14.62;81.63;102166.81;10430127;28;20050;-77
2023/08/19 04:00:28;;;;;;;0.55;0.55;;;;;;;14.66;81.24;102182.56;10446797;28;20041;-77
2023/08/19 04:05:30;;;;;;;0.22;0.22;;;;;;;14.46;82.93;102161.22;10446455;28;20056;-77
2023/08/19 04:10:33;;;;;;;3.47;0.93;;;;;;;14.60;82.27;102156.03;10433210;28;20397;-77
2023/08/19 04:15:35;;;;;;;2.90;0.80;;;;;;;14.73;81.93;102158.25;10458031;28;20053;-77
2023/08/19 04:20:38;;;;;;;2.88;0.90;;;;;;;14.71;82.04;102166.00;10442598;28;20408;-77
2023/08/19 04:25:41;;;;;;;1.38;0.57;;;;;;;14.95;80.92;102169.13;10425130;28;20038;-77
2023/08/19 04:30:43;;;;;;;1.08;0.80;;;;;;;15.17;80.61;102171.63;10437947;28;20041;-77
2023/08/19 04:35:47;;;;;;;0.47;0.47;;;;;;;15.36;79.58;102172.75;10416893;28;20131;-77
2023/08/19 04:40:53;;;;;;;0.85;0.70;;;;;;;15.12;80.23;102168.03;10436417;28;20041;-77
2023/08/19 04:45:55;;;;;;;0.68;0.47;;;;;;;15.26;80.30;102163.59;10428863;28;20049;-77
2023/08/19 04:51:00;;;;;;;1.08;0.73;;;;;;;15.49;79.23;102162.25;10442828;28;20045;-77
2023/08/19 04:56:04;;;;;;;0.50;0.50;;;;;;;15.58;79.07;102155.03;10421416;28;20492;-77
2023/08/19 05:01:09;;;;;;;3.28;0.90;;;;;;;15.56;79.68;102148.97;10421661;28;20543;-77
2023/08/19 05:06:13;;;;;;;2.83;0.80;;;;;;;15.61;79.25;102143.44;10424746;28;20471;-77
2023/08/19 05:11:17;;;;;;;3.13;0.82;;;;;;;15.83;78.96;102155.06;10437808;28;20045;-77
2023/08/19 05:16:21;;;;;;;1.98;0.80;;;;;;;16.24;77.12;102127.25;10418235;28;20057;-77
2023/08/19 05:21:23;;;;;;;0.40;0.40;;;;;;;16.31;76.83;102149.91;10426754;28;20423;-77
2023/08/19 05:26:25;;;;;;;0.93;0.65;;;;;;;16.62;76.18;102130.38;10443882;28;20492;-77
2023/08/19 05:31:29;;;;;;;1.85;0.70;;;;;;;16.69;75.96;102139.25;10420238;28;20049;-77
2023/08/19 05:36:31;;;;;;;2.63;0.70;;;;;;;16.45;76.84;102147.38;10432494;28;20045;-77
2023/08/19 05:41:33;;;;;;;0.55;0.55;;;;;;;16.18;77.63;102137.53;10442159;28;20041;-77
2023/08/19 05:46:36;;;;;;;0.73;0.52;;;;;;;15.77;80.12;102144.25;10441153;28;20040;-77
2023/08/19 05:51:38;;;;;;;0.55;0.50;;;;;;;15.91;80.16;102115.72;10441318;28;20033;-77
2023/08/19 05:56:40;;;;;;;0.82;0.60;;;;;;;16.09;79.52;102119.81;10443792;28;20052;-77
2023/08/19 06:01:43;;;;;;;0.95;0.75;;;;;;;15.88;80.00;102124.59;10442110;28;20054;-77
2023/08/19 06:06:45;;;;;;;3.80;0.82;;;;;;;16.14;79.69;102107.88;10446022;28;20033;-77
2023/08/19 06:11:48;;;;;;;1.75;0.93;;;;;;;16.74;77.71;102100.41;10450973;28;20037;-77
2023/08/19 06:16:50;;;;;;;1.23;0.95;;;;;;;17.85;73.27;102092.25;10433546;28;20037;-77
2023/08/19 06:21:53;;;;;;;2.75;1.00;;;;;;;18.38;71.51;102081.84;10446357;28;20041;-77
2023/08/19 06:26:55;;;;;;;2.67;1.20;;;;;;;17.85;73.14;102081.13;10450539;28;20045;-77
2023/08/19 06:31:58;;;;;;;1.13;0.82;;;;;;;17.72;72.57;102089.06;10448975;28;20144;-78
2023/08/19 06:37:01;;;;;;;3.47;0.90;;;;;;;16.97;76.14;102082.22;10449626;28;20052;-77
2023/08/19 06:42:05;;;;;;;1.92;0.80;;;;;;;16.69;77.27;102073.56;10434515;28;20509;-77
2023/08/19 06:47:09;;;;;;;1.20;0.88;;;;;;;16.31;79.42;102064.03;10453412;28;20041;-77
2023/08/19 06:52:12;;;;;;;1.70;0.80;;;;;;;16.29;79.46;102052.41;10412642;28;20073;-77
2023/08/19 06:57:22;;;;;;;1.08;0.70;;;;;;;16.28;79.46;102059.91;10414320;28;20038;-77
2023/08/19 07:02:25;;;;;;;2.13;1.08;;;;;;;16.18;80.81;102048.06;10453835;28;20144;-77
2023/08/19 07:07:29;;;;;;;0.50;0.50;;;;;;;16.13;82.12;102048.91;10448779;28;20045;-77
2023/08/19 07:12:32;;;;;;;1.30;0.73;;;;;;;16.09;82.92;102044.22;10425729;28;20491;-77
2023/08/19 07:17:34;;;;;;;1.00;0.65;;;;;;;16.01;82.24;102042.06;10440140;28;20041;-77
2023/08/19 07:22:37;;;;;;;2.00;0.95;;;;;;;15.89;83.73;102050.66;10447218;28;20060;-77
2023/08/19 07:27:43;;;;;;;2.88;1.25;;;;;;;15.78;83.87;102066.47;10445313;28;20633;-72
2023/08/19 07:32:45;;;;;;;1.58;1.00;;;;;;;15.78;84.29;102066.47;10436151;28;20088;-74
2023/08/19 07:37:48;;;;;;;1.15;0.55;;;;;;;15.96;82.48;102070.56;10449706;28;20049;-74
2023/08/19 07:42:50;;;;;;;1.48;0.45;;;;;;;16.21;82.70;102056.63;10448240;28;20056;-75
2023/08/19 07:47:53;;;;;;;1.40;0.70;;;;;;;16.41;81.47;102072.31;10444124;28;20033;-75
2023/08/19 07:52:55;;;;;;;2.80;0.90;;;;;;;16.38;80.42;102064.56;10446145;28;20045;-75
2023/08/19 07:57:57;;;;;;;2.10;1.00;;;;;;;16.44;79.89;102060.66;10447634;28;20046;-75
2023/08/19 08:03:00;;;;;;;1.10;0.90;;;;;;;16.18;81.08;102048.06;10441002;28;20046;-74
2023/08/19 08:08:02;;;;;;;1.73;0.63;;;;;;;16.31;79.71;102052.97;10446195;28;20535;-75
2023/08/19 08:13:05;;;;;;;0.43;0.28;;;;;;;16.28;81.21;102039.69;10448484;28;20033;-74
2023/08/19 08:18:07;;;;;;;3.78;1.00;;;;;;;16.25;80.10;102037.50;10439786;28;20041;-76
2023/08/19 08:23:10;;;;;;;3.90;1.63;;;;;;;16.30;80.47;102037.44;10473044;28;20044;-75
2023/08/19 08:28:12;;;;;;;1.48;0.70;;;;;;;16.23;80.59;102035.00;10483984;28;20041;-75
2023/08/19 08:33:14;;;;;;;4.22;1.10;;;;;;;16.36;80.20;102043.81;10451385;28;20037;-76
2023/08/19 08:38:16;;;;;;;1.25;0.47;;;;;;;16.21;80.38;102041.94;10444465;28;20037;-78
2023/08/19 08:43:19;;;;;;;5.68;1.05;;;;;;;16.16;81.01;102044.75;10440966;28;20033;-77
2023/08/19 08:48:22;;;;;;;0.80;0.77;;;;;;;16.18;81.61;102042.53;10444970;28;20041;-76
2023/08/19 08:53:27;;;;;;;1.00;0.65;;;;;;;16.35;81.05;102050.47;10442409;28;20503;-77
2023/08/19 08:58:29;;;;;;;2.28;1.17;;;;;;;16.22;81.68;102046.38;10438208;28;20053;-77
2023/08/19 09:03:33;;;;;;;0.70;0.50;;;;;;;16.24;81.31;102053.28;10443512;28;20056;-77
2023/08/19 09:08:58;;;;;;;2.97;0.98;;;;;;;16.20;81.97;102056.91;10427542;28;20053;-77
2023/08/19 09:14:15;;;;;;;3.03;1.02;;;;;;;16.12;82.47;102061.09;10440342;28;20044;-78
2023/08/19 09:19:18;;;;;;;;;;;;;;;16.15;82.93;102056.94;10437320;28;20068;-76
2023/08/19 09:24:21;;;;;;;0.70;0.70;;;;;;;16.15;83.18;102054.19;10444688;28;19925;-77
2023/08/19 09:29:23;;;;;;;1.27;0.70;;;;;;;16.18;82.62;102057.19;10473752;28;20045;-74
2023/08/19 09:34:26;;;;;;;1.13;0.98;;;;;;;16.24;83.04;102064.34;10439135;28;20041;-74
2023/08/19 09:39:34;;;;;;;0.45;0.45;;;;;;;16.10;82.46;102059.72;10432821;28;20518;-73
2023/08/19 09:44:40;;;;;;;1.48;0.70;;;;;;;15.87;84.07;102050.13;10446906;28;20033;-75
2023/08/19 09:49:42;;;;;;;1.95;0.70;;;;;;;15.87;85.05;102048.19;10422223;28;20057;-75
2023/08/19 09:54:54;;;;;;;2.30;0.93;;;;;;;15.93;85.76;102046.22;10444177;28;20033;-74
2023/08/19 09:59:56;;;;;;;0.80;0.80;;;;;;;15.97;85.71;102045.38;10440305;28;20460;-75
2023/08/19 10:04:58;;;;;;;1.60;0.70;;;;;;;16.04;86.03;102030.41;10443593;28;20053;-75
2023/08/19 10:10:03;;;;;;;0.93;0.47;;;;;;;15.96;86.00;102043.72;10436047;28;20049;-76
2023/08/19 10:15:12;;;;;;;1.50;0.88;;;;;;;16.00;86.43;102034.84;10445996;28;20401;-76
2023/08/19 10:20:17;;;;;;;5.32;1.58;;;;;;;16.05;86.94;102032.06;10440237;28;20057;-74
2023/08/19 10:25:20;;;;;;;3.42;0.90;;;;;;;16.01;86.77;102022.66;10446753;28;20041;-74
2023/08/19 10:30:22;;;;;;;11.48;0.85;;;;;;;15.94;86.95;102021.00;10442832;28;20045;-73
2023/08/19 10:35:25;;;;;;;2.38;0.95;;;;;;;16.00;86.55;102023.78;10443339;28;20056;-72
2023/08/19 10:40:27;;;;;;;1.30;0.90;;;;;;;15.94;86.88;102021.00;10442007;28;20041;-72
2023/08/19 10:45:33;;;;;;;4.63;1.40;;;;;;;16.18;86.28;102025.91;10447812;28;20045;-71
2023/08/19 10:50:36;;;;;;;2.28;1.00;;;;;;;16.17;86.27;102029.78;10441866;28;20053;-73
2023/08/19 10:55:50;;;;;;;1.33;0.70;;;;;;;16.09;86.24;102033.13;10444529;28;20416;-71
2023/08/19 11:00:52;;;;;;;1.92;0.77;;;;;;;16.24;85.75;102022.00;10425166;28;20045;-71
2023/08/19 11:05:55;;;;;;;0.80;0.40;;;;;;;16.11;86.62;102025.38;10443061;28;20137;-71
2023/08/19 11:10:57;;;;;;;1.55;0.80;;;;;;;16.15;86.86;102010.69;10439674;28;20061;-73
2023/08/19 11:16:04;;;;;;;0.90;0.85;;;;;;;16.32;86.43;102013.09;10438628;28;20060;-72
2023/08/19 11:21:07;;;;;;;1.08;0.93;;;;;;;16.30;86.21;102018.06;10437244;28;20045;-72
2023/08/19 11:26:09;;;;;;;1.40;1.00;;;;;;;16.32;86.30;102018.63;10438630;28;20124;-71
2023/08/19 11:31:11;;;;;;;1.50;1.13;;;;;;;16.58;85.53;102009.03;10423218;28;20108;-71
2023/08/19 11:36:13;;;;;;;3.53;1.00;;;;;;;16.69;84.76;102009.81;10425962;28;20037;-71
2023/08/19 11:41:15;;;;;;;4.10;1.45;;;;;;;16.65;85.05;102007.84;10438851;28;20141;-71
2023/08/19 11:46:18;;;;;;;1.67;1.17;;;;;;;16.57;85.15;101996.28;10443721;28;20064;-73
2023/08/19 11:51:20;;;;;;;1.40;1.10;;;;;;;16.67;84.98;101987.09;10443776;28;20041;-73
2023/08/19 11:56:22;;;;;;;3.08;1.30;;;;;;;16.80;84.51;101996.69;10438292;28;20116;-73
2023/08/19 12:01:25;;;;;;;1.73;1.05;;;;;;;16.71;83.88;101993.72;10433787;28;20049;-74
2023/08/19 12:06:31;;;;;;;2.25;1.20;;;;;;;16.69;83.97;101997.91;10439222;28;20049;-72
2023/08/19 12:11:35;;;;;;;1.83;1.52;;;;;;;16.73;83.89;102004.50;10439087;28;20060;-72
2023/08/19 12:16:38;;;;;;;1.48;1.20;;;;;;;16.77;84.01;101997.25;10438102;28;20041;-73
2023/08/19 12:21:40;;;;;;;3.13;1.50;;;;;;;17.00;83.10;101999.28;10438355;28;20049;-73
2023/08/19 12:26:42;;;;;;;2.40;1.23;;;;;;;17.00;82.97;101995.69;10433042;28;20053;-73
2023/08/19 12:31:44;;;;;;;1.00;0.90;;;;;;;17.08;82.23;101986.75;10438209;28;20037;-73
2023/08/19 12:36:46;;;;;;;1.58;1.45;;;;;;;17.08;82.30;101984.78;10444676;28;20045;-73
2023/08/19 12:41:48;;;;;;;3.60;2.10;;;;;;;16.99;82.56;101980.97;10444856;28;20048;-73
2023/08/19 12:46:51;;;;;;;1.35;1.10;;;;;;;16.90;83.18;101979.97;10441694;28;20045;-73
2023/08/19 12:51:53;;;;;;;3.42;1.35;;;;;;;16.97;83.27;101983.22;10442298;28;20056;-72
2023/08/19 12:56:55;;;;;;;3.45;1.27;;;;;;;16.83;83.67;101977.56;10442971;28;20050;-72
2023/08/19 13:01:58;;;;;;;3.88;1.30;;;;;;;16.86;83.60;101984.47;10438347;28;20049;-71
2023/08/19 13:07:00;;;;;;;1.75;1.20;;;;;;;16.85;83.31;101991.94;10440169;28;20044;-72
2023/08/19 13:12:03;;;;;;;3.08;1.30;;;;;;;16.83;83.49;101976.69;10442919;28;20049;-72
2023/08/19 13:17:05;;;;;;;4.20;1.90;;;;;;;16.85;83.69;101974.47;10421564;28;20041;-72
2023/08/19 13:22:07;;;;;;;3.08;1.50;;;;;;;16.83;83.70;101977.56;10442286;28;20053;-72
2023/08/19 13:27:10;;;;;;;2.40;1.33;;;;;;;16.80;84.15;101966.19;10440410;28;20045;-72
2023/08/19 13:32:13;;;;;;;2.17;1.30;;;;;;;16.78;84.79;101973.97;10409517;28;20645;-72
2023/08/19 13:37:15;;;;;;;2.42;1.30;;;;;;;16.77;84.83;101978.69;10442756;28;20048;-73
2023/08/19 13:42:18;;;;;;;1.48;1.33;;;;;;;16.79;84.66;101976.44;10440849;28;20045;-73
2023/08/19 13:47:20;;;;;;;1.80;0.80;;;;;;;16.85;85.24;101961.44;10440728;28;20159;-72
2023/08/19 13:52:39;;;;;;;3.42;1.50;;;;;;;16.86;85.28;101948.41;10442020;28;20053;-72
2023/08/19 13:57:42;;;;;;;1.25;1.15;;;;;;;16.85;85.25;101935.66;10439955;28;20038;-73
2023/08/19 14:02:44;;;;;;;2.15;1.50;;;;;;;16.85;85.47;101933.72;10439271;28;20038;-73
2023/08/19 14:07:46;;;;;;;3.30;1.40;;;;;;;16.85;85.28;101925.41;10439071;28;20046;-73
2023/08/19 14:12:49;;;;;;;4.85;1.83;;;;;;;17.02;85.07;101927.72;10439328;28;20044;-73
2023/08/19 14:17:53;;;;;;;3.28;2.13;;;;;;;16.93;85.13;101932.25;10440462;28;20030;-73
2023/08/19 14:22:55;;;;;;;3.33;2.05;;;;;;;16.85;85.92;101930.13;10415609;28;20034;-73
2023/08/19 14:27:57;;;;;;;5.10;2.60;;;;;;;16.84;85.72;101918.22;10438541;28;20431;-73
2023/08/19 14:32:59;;;;;;;3.53;2.05;;;;;;;16.82;85.96;101912.09;10438713;28;20590;-73
2023/08/19 14:38:02;;;;;;;2.13;1.75;;;;;;;16.93;85.37;101907.28;10443603;28;20420;-73
2023/08/19 14:43:04;;;;;;;3.60;2.50;;;;;;;16.94;84.75;101903.41;10440773;28;20038;-73
2023/08/19 14:48:06;;;;;;;3.95;1.95;;;;;;;16.96;84.79;101909.47;10443635;28;20052;-74
2023/08/19 14:53:09;;;;;;;3.03;2.05;;;;;;;16.94;84.31;101908.94;10443341;28;20074;-77
2023/08/19 14:58:11;;;;;;;5.03;1.85;;;;;;;16.79;84.50;101900.78;10444859;28;20053;-77
2023/08/19 15:03:14;;;;;;;3.67;1.77;;;;;;;16.78;84.91;101893.59;10443602;28;20423;-78
2023/08/19 15:08:16;;;;;;;3.72;1.65;;;;;;;16.82;85.18;101889.09;10436245;28;20050;-78
2023/08/19 15:13:19;;;;;;;2.10;1.20;;;;;;;16.78;85.89;101888.03;10433473;28;20041;-78
2023/08/19 15:18:22;;;;;;;5.78;1.08;;;;;;;16.80;85.57;101883.84;10441382;28;20038;-78
2023/08/19 15:23:24;;;;;;;2.78;1.63;;;;;;;16.74;86.11;101892.53;10444551;28;20052;-76
2023/08/19 15:28:26;;;;;;;4.82;1.65;;;;;;;16.78;85.94;101886.09;10440716;28;20041;-75
2023/08/19 15:33:28;;;;;;;5.60;2.13;;;;;;;16.78;86.04;101875.00;10440559;28;20033;-77
2023/08/19 15:38:31;;;;;;;3.08;1.65;;;;;;;16.92;85.68;101871.53;10439868;28;20049;-79
2023/08/19 15:43:33;;;;;;;2.63;1.25;;;;;;;16.93;85.67;101871.25;10434511;28;20076;-80
2023/08/19 15:48:36;;;;;;;5.50;2.10;;;;;;;16.81;86.26;101865.28;10442565;28;20496;-82
2023/08/19 15:53:39;;;;;;;2.70;1.27;;;;;;;16.83;86.93;101861.13;10444106;28;20041;-80
2023/08/19 15:58:41;;;;;;;1.38;1.10;;;;;;;16.86;86.72;101857.75;10442275;28;20065;-83
2023/08/19 16:03:43;;;;;;;0.85;0.82;;;;;;;16.86;86.79;101860.53;10439421;28;20404;-81
2023/08/19 16:08:46;;;;;;;2.55;1.45;;;;;;;16.94;85.92;101859.03;10440531;28;20041;-81
2023/08/19 16:13:49;;;;;;;1.75;1.52;;;;;;;16.98;86.50;101860.09;10435817;28;20048;-81
2023/08/19 16:18:52;;;;;;;0.90;0.80;;;;;;;16.98;86.14;101868.41;10441689;28;20041;-81
2023/08/19 16:23:54;;;;;;;1.00;0.90;;;;;;;16.86;86.62;101865.25;10440891;28;20411;-81
2023/08/19 16:28:56;;;;;;;2.45;1.40;;;;;;;16.80;87.51;101856.13;10432224;28;20037;-81
2023/08/19 16:33:59;;;;;;;1.30;1.00;;;;;;;16.86;86.95;101851.38;10443838;28;20092;-82
2023/08/19 16:39:01;;;;;;;3.78;1.60;;;;;;;16.89;87.13;101853.56;10440721;28;20045;-82
2023/08/19 16:44:04;;;;;;;3.90;1.50;;;;;;;16.80;87.28;101846.97;10437490;28;20048;-79
2023/08/19 16:49:06;;;;;;;1.98;1.63;;;;;;;16.80;87.82;101850.59;10439679;28;20037;-82
2023/08/19 16:54:08;;;;;;;2.08;1.52;;;;;;;16.66;88.21;101843.22;10443191;28;20041;-85
2023/08/19 16:59:11;;;;;;;3.33;1.30;;;;;;;16.72;88.49;101831.84;10441670;28;20053;-84
2023/08/19 17:04:13;;;;;;;3.25;1.80;;;;;;;16.66;88.45;101837.66;10433917;28;20404;-82
2023/08/19 17:09:18;;;;;;;2.00;1.40;;;;;;;16.63;88.87;101835.50;10436250;28;20044;-80
2023/08/19 17:14:20;;;;;;;2.03;1.52;;;;;;;16.66;88.77;101834.91;10439497;28;20045;-77
2023/08/19 17:19:22;;;;;;;2.95;1.77;;;;;;;16.50;89.46;101837.03;10434011;28;20147;-79
2023/08/19 17:24:25;;;;;;;4.65;1.55;;;;;;;16.50;89.43;101829.53;10436240;28;20033;-78
2023/08/19 17:29:27;;;;;;;2.20;1.25;;;;;;;16.55;89.51;101842.50;10422805;28;20052;-78
2023/08/19 17:34:30;;;;;;;1.42;1.33;;;;;;;16.51;89.71;101836.72;10420321;28;20074;-78
2023/08/19 17:39:32;;;;;;;1.30;1.20;;;;;;;16.48;89.89;101820.66;10423735;28;20041;-79
2023/08/19 17:44:50;;;;;;;4.78;1.65;;;;;;;16.48;90.07;101825.38;10439126;28;20042;-79
2023/08/19 17:49:52;;;;;;;;;;;;;;;16.48;90.28;101817.91;10420508;28;20142;-80
2023/08/19 17:54:54;;;;;;;2.75;1.30;;;;;;;16.45;90.60;101832.34;10437790;28;19925;-77
2023/08/19 17:59:56;;;;;;;3.83;1.60;;;;;;;16.41;90.88;101822.97;10436802;28;20419;-77
2023/08/19 18:04:58;;;;;;;1.25;1.00;;;;;;;16.39;91.02;101821.59;10446071;28;20033;-77
2023/08/19 18:10:02;;;;;;;1.55;1.23;;;;;;;16.43;91.56;101823.50;10447000;28;20053;-78
2023/08/19 18:15:04;;;;;;;2.03;1.40;;;;;;;16.38;91.24;101820.78;10448180;28;20041;-77
2023/08/19 18:20:07;;;;;;;2.33;1.70;;;;;;;16.32;91.76;101827.50;10446326;28;20037;-75
2023/08/19 18:25:10;;;;;;;1.85;1.50;;;;;;;16.25;91.98;101821.44;10444744;28;20091;-81
2023/08/19 18:30:14;;;;;;;1.95;1.50;;;;;;;16.27;92.32;101821.97;10448040;28;20041;-81
2023/08/19 18:35:18;;;;;;;2.88;1.40;;;;;;;16.28;91.90;101821.69;10448546;28;20053;-86
2023/08/19 18:40:20;;;;;;;1.67;1.13;;;;;;;16.26;92.13;101812.84;10478605;28;20037;-84
2023/08/19 18:45:23;;;;;;;2.65;1.48;;;;;;;16.25;91.66;101821.44;10428605;28;20045;-84
2023/08/19 18:50:26;;;;;;;2.35;1.30;;;;;;;16.25;92.17;101813.13;10444841;28;20041;-86
2023/08/19 18:55:29;;;;;;;2.85;1.30;;;;;;;16.21;92.33;101803.78;10427196;28;20044;-78
2023/08/19 19:00:33;;;;;;;2.10;1.15;;;;;;;16.24;92.25;101804.00;10439061;28;20042;-79
2023/08/19 19:05:35;;;;;;;6.25;2.05;;;;;;;16.25;92.28;101804.84;10461041;28;20048;-78
2023/08/19 19:10:37;;;;;;;2.40;1.35;;;;;;;16.21;92.73;101809.31;10454200;28;20431;-77
2023/08/19 19:15:39;;;;;;;2.63;1.40;;;;;;;16.28;92.42;101815.31;10445824;28;20048;-77
2023/08/19 19:20:41;;;;;;;2.60;1.38;;;;;;;16.28;92.18;101809.78;10436055;28;20052;-83
2023/08/19 19:25:45;;;;;;;1.17;1.08;;;;;;;16.23;92.88;101807.06;10432559;28;20040;-86
2023/08/19 19:30:47;;;;;;;1.50;1.23;;;;;;;16.24;92.83;101814.25;10439427;28;20445;-73
2023/08/19 19:35:49;;;;;;;1.88;1.27;;;;;;;16.26;93.30;101812.03;10439226;28;20051;-73
2023/08/19 19:40:52;;;;;;;1.40;1.25;;;;;;;16.20;93.45;101814.03;10442198;28;20503;-75
2023/08/19 19:45:54;;;;;;;2.40;2.05;;;;;;;16.22;93.88;101814.56;10445099;28;20037;-75
2023/08/19 19:50:58;;;;;;;1.90;1.60;;;;;;;16.10;94.33;101814.09;10442612;28;20038;-76
2023/08/19 19:56:00;;;;;;;2.35;1.77;;;;;;;16.03;95.35;101796.16;10437384;28;20045;-77
2023/08/19 20:01:02;;;;;;;2.05;1.70;;;;;;;16.03;95.64;101802.53;10437469;28;20051;-76
2023/08/19 20:06:04;;;;;;;2.65;1.60;;;;;;;16.09;96.07;101800.53;10443206;28;20056;-75
2023/08/19 20:11:06;;;;;;;1.35;1.15;;;;;;;16.07;96.19;101808.31;10439280;28;20037;-76
2023/08/19 20:16:09;;;;;;;2.40;2.08;;;;;;;16.07;97.35;101798.06;10434793;28;20038;-73
2023/08/19 20:21:11;;;;;;;3.55;1.95;;;;;;;16.10;96.41;101804.97;10440282;28;20037;-73
2023/08/19 20:26:13;;;;;;;1.90;1.08;;;;;;;16.01;96.38;101803.94;10433126;28;20045;-73
2023/08/19 20:31:15;;;;;;;2.05;1.80;;;;;;;15.99;96.54;101801.47;10440199;28;20048;-74
2023/08/19 20:36:18;;;;;;;2.10;1.58;;;;;;;15.98;97.00;101802.59;10441328;28;20518;-73
2023/08/19 20:41:20;;;;;;;1.60;1.50;;;;;;;15.97;96.68;101809.25;10442725;28;20045;-73
2023/08/19 20:46:22;;;;;;;4.35;2.10;;;;;;;15.88;96.80;101809.00;10439247;28;20044;-72
2023/08/19 20:51:25;;;;;;;4.38;1.98;;;;;;;15.79;97.24;101796.88;10441640;28;20057;-73
2023/08/19 20:56:27;;;;;;;2.95;2.47;;;;;;;15.74;97.53;101794.16;10438898;28;20056;-75
2023/08/19 21:01:31;;;;;;;2.20;1.63;;;;;;;15.80;97.83;101793.03;10438635;28;20049;-75
2023/08/19 21:06:34;;;;;;;4.40;1.67;;;;;;;15.73;98.15;101792.50;10431512;28;20088;-73
2023/08/19 21:11:36;;;;;;;1.08;0.98;;;;;;;15.66;98.30;101787.31;10442767;28;20048;-75
2023/08/19 21:16:39;;;;;;;3.58;2.00;;;;;;;15.62;98.90;101785.41;10434283;28;20444;-75
2023/08/19 21:21:41;;;;;;;2.08;1.42;;;;;;;15.52;99.10;101779.91;10434563;28;20049;-76
2023/08/19 21:26:43;;;;;;;1.80;1.38;;;;;;;15.56;99.32;101786.50;10440812;28;20037;-75
2023/08/19 21:31:46;;;;;;;2.60;1.35;;;;;;;15.48;99.04;101785.19;10438793;28;20369;-74
2023/08/19 21:36:48;;;;;;;2.97;1.52;;;;;;;15.48;99.04;101784.38;10445235;28;20127;-77
2023/08/19 21:41:50;;;;;;;0.82;0.73;;;;;;;15.50;98.62;101787.66;10429638;28;20037;-71
2023/08/19 21:46:56;;;;;;;0.85;0.85;;;;;;;15.60;98.24;101782.91;10439588;28;20048;-73
2023/08/19 21:51:58;;;;;;;1.30;1.20;;;;;;;15.65;96.37;101787.59;10430476;28;20049;-73
2023/08/19 21:57:00;;;;;;;1.50;1.30;;;;;;;15.57;96.63;101777.94;10426116;28;20061;-72
2023/08/19 22:02:02;;;;;;;1.70;1.40;;;;;;;15.56;96.59;101778.22;10437539;28;20050;-72
2023/08/19 22:07:05;;;;;;;1.08;1.02;;;;;;;15.50;96.29;101776.59;10435834;28;20045;-72
2023/08/19 22:12:07;;;;;;;2.78;1.17;;;;;;;15.50;96.35;101768.31;10402936;28;20041;-72
2023/08/19 22:17:09;;;;;;;1.55;1.45;;;;;;;15.47;96.49;101769.72;10417443;28;20045;-72
2023/08/19 22:22:11;;;;;;;0.82;0.80;;;;;;;15.50;95.88;101760.00;10457052;28;20507;-72
2023/08/19 22:27:16;;;;;;;1.55;1.00;;;;;;;15.46;95.68;101757.00;10442070;28;20064;-72
2023/08/19 22:32:18;;;;;;;0.98;0.80;;;;;;;15.44;95.61;101745.38;10437293;28;20049;-72
2023/08/19 22:37:20;;;;;;;1.95;1.85;;;;;;;15.37;95.04;101756.75;10428712;28;20049;-73
2023/08/19 22:42:22;;;;;;;1.40;1.27;;;;;;;15.30;95.43;101749.91;10437498;28;20053;-72
2023/08/19 22:47:25;;;;;;;2.47;1.10;;;;;;;15.25;95.25;101750.75;10437352;28;20530;-73
2023/08/19 22:52:28;;;;;;;0.85;0.57;;;;;;;15.24;95.18;101751.03;10443518;28;20037;-72
2023/08/19 22:57:30;;;;;;;4.03;1.10;;;;;;;15.25;94.69;101750.75;10444844;28;20507;-73
2023/08/19 23:02:32;;;;;;;0.77;0.60;;;;;;;15.33;94.02;101750.16;10448539;28;20046;-72
2023/08/19 23:07:34;;;;;;;1.10;0.80;;;;;;;15.31;93.89;101757.91;10438518;28;20677;-72
2023/08/19 23:12:37;;;;;;;3.63;1.02;;;;;;;15.31;93.23;101746.84;10454046;28;20046;-72